sensor_id;sensor_type;location;lat;lon;timestamp;P1;durP1;ratioP1;P2;durP2;ratioP2
36715;SDS011;22699;51.034;3.730;2023-02-13T00:02:24;44.45;;;32.35;;
36715;SDS011;22699;51.034;3.730;2023-02-13T00:04:49;51.33;;;33.80;;
36715;SDS011;22699;51.034;3.730;2023-02-13T00:07:19;52.58;;;32.22;;
36715;SDS011;22699;51.034;3.730;2023-02-13T00:12:17;48.88;;;31.27;;
36715;SDS011;22699;51.034;3.730;2023-02-13T00:14:44;52.13;;;33.60;;
36715;SDS011;22699;51.034;3.730;2023-02-13T00:17:20;52.38;;;33.38;;
36715;SDS011;22699;51.034;3.730;2023-02-13T00:19:52;48.85;;;31.92;;
36715;SDS011;22699;51.034;3.730;2023-02-13T00:22:20;52.83;;;32.63;;
36715;SDS011;22699;51.034;3.730;2023-02-13T00:24:46;48.60;;;31.90;;
36715;SDS011;22699;51.034;3.730;2023-02-13T00:27:12;58.17;;;35.50;;
36715;SDS011;22699;51.034;3.730;2023-02-13T00:29:39;50.22;;;33.47;;
36715;SDS011;22699;51.034;3.730;2023-02-13T00:32:04;47.30;;;32.20;;
36715;SDS011;22699;51.034;3.730;2023-02-13T00:34:34;49.80;;;32.85;;
36715;SDS011;22699;51.034;3.730;2023-02-13T00:37:00;51.35;;;32.80;;
36715;SDS011;22699;51.034;3.730;2023-02-13T00:39:26;54.38;;;33.05;;
36715;SDS011;22699;51.034;3.730;2023-02-13T00:41:55;52.85;;;33.38;;
36715;SDS011;22699;51.034;3.730;2023-02-13T00:44:20;55.33;;;34.72;;
36715;SDS011;22699;51.034;3.730;2023-02-13T00:46:46;52.00;;;33.58;;
36715;SDS011;22699;51.034;3.730;2023-02-13T00:49:23;51.00;;;32.20;;
36715;SDS011;22699;51.034;3.730;2023-02-13T00:51:50;52.13;;;32.63;;
36715;SDS011;22699;51.034;3.730;2023-02-13T00:54:16;50.22;;;31.80;;
36715;SDS011;22699;51.034;3.730;2023-02-13T00:56:43;55.58;;;32.78;;
36715;SDS011;22699;51.034;3.730;2023-02-13T00:59:10;55.80;;;34.80;;
36715;SDS011;22699;51.034;3.730;2023-02-13T01:01:37;52.45;;;33.33;;
36715;SDS011;22699;51.034;3.730;2023-02-13T01:04:11;55.88;;;35.38;;
36715;SDS011;22699;51.034;3.730;2023-02-13T01:06:47;54.05;;;33.38;;
36715;SDS011;22699;51.034;3.730;2023-02-13T01:09:14;53.72;;;32.95;;
36715;SDS011;22699;51.034;3.730;2023-02-13T01:11:42;57.58;;;33.83;;
36715;SDS011;22699;51.034;3.730;2023-02-13T01:14:09;55.05;;;34.70;;
36715;SDS011;22699;51.034;3.730;2023-02-13T01:16:35;54.53;;;33.85;;
36715;SDS011;22699;51.034;3.730;2023-02-13T01:19:01;55.80;;;34.60;;
36715;SDS011;22699;51.034;3.730;2023-02-13T01:21:28;58.17;;;33.97;;
36715;SDS011;22699;51.034;3.730;2023-02-13T01:24:01;53.20;;;32.08;;
36715;SDS011;22699;51.034;3.730;2023-02-13T01:26:27;53.95;;;34.05;;
36715;SDS011;22699;51.034;3.730;2023-02-13T01:28:54;60.28;;;35.53;;
36715;SDS011;22699;51.034;3.730;2023-02-13T01:31:22;62.88;;;35.17;;
36715;SDS011;22699;51.034;3.730;2023-02-13T01:33:48;53.50;;;32.50;;
36715;SDS011;22699;51.034;3.730;2023-02-13T01:36:14;57.42;;;33.58;;
36715;SDS011;22699;51.034;3.730;2023-02-13T01:38:40;54.35;;;33.50;;
36715;SDS011;22699;51.034;3.730;2023-02-13T01:41:07;55.67;;;34.38;;
36715;SDS011;22699;51.034;3.730;2023-02-13T01:46:18;58.35;;;33.88;;
36715;SDS011;22699;51.034;3.730;2023-02-13T01:48:53;58.97;;;34.25;;
36715;SDS011;22699;51.034;3.730;2023-02-13T01:51:24;59.45;;;35.42;;
36715;SDS011;22699;51.034;3.730;2023-02-13T01:53:59;62.05;;;36.47;;
36715;SDS011;22699;51.034;3.730;2023-02-13T01:56:40;61.60;;;35.95;;
36715;SDS011;22699;51.034;3.730;2023-02-13T01:59:12;62.72;;;36.22;;
36715;SDS011;22699;51.034;3.730;2023-02-13T02:01:44;68.70;;;37.13;;
36715;SDS011;22699;51.034;3.730;2023-02-13T02:04:12;62.15;;;35.40;;
36715;SDS011;22699;51.034;3.730;2023-02-13T02:06:45;60.50;;;35.28;;
36715;SDS011;22699;51.034;3.730;2023-02-13T02:09:15;63.83;;;34.58;;
36715;SDS011;22699;51.034;3.730;2023-02-13T02:14:18;67.13;;;35.63;;
36715;SDS011;22699;51.034;3.730;2023-02-13T02:16:45;71.75;;;37.83;;
36715;SDS011;22699;51.034;3.730;2023-02-13T02:19:13;68.97;;;38.85;;
36715;SDS011;22699;51.034;3.730;2023-02-13T02:22:00;70.18;;;37.95;;
36715;SDS011;22699;51.034;3.730;2023-02-13T02:24:51;75.63;;;38.45;;
36715;SDS011;22699;51.034;3.730;2023-02-13T02:44:12;56.10;;;33.25;;
36715;SDS011;22699;51.034;3.730;2023-02-13T02:55:59;72.47;;;38.25;;
36715;SDS011;22699;51.034;3.730;2023-02-13T03:01:26;79.70;;;39.70;;
36715;SDS011;22699;51.034;3.730;2023-02-13T03:04:23;83.85;;;41.83;;
36715;SDS011;22699;51.034;3.730;2023-02-13T03:07:12;80.05;;;39.38;;
36715;SDS011;22699;51.034;3.730;2023-02-13T03:09:41;79.30;;;39.75;;
36715;SDS011;22699;51.034;3.730;2023-02-13T03:12:45;78.20;;;39.83;;
36715;SDS011;22699;51.034;3.730;2023-02-13T03:15:38;70.50;;;37.85;;
36715;SDS011;22699;51.034;3.730;2023-02-13T03:18:39;72.70;;;39.00;;
36715;SDS011;22699;51.034;3.730;2023-02-13T03:24:43;82.07;;;40.55;;
36715;SDS011;22699;51.034;3.730;2023-02-13T03:39:11;84.68;;;40.28;;
36715;SDS011;22699;51.034;3.730;2023-02-13T03:42:03;96.57;;;41.90;;
36715;SDS011;22699;51.034;3.730;2023-02-13T03:44:45;86.30;;;44.13;;
36715;SDS011;22699;51.034;3.730;2023-02-13T03:47:40;95.22;;;45.78;;
36715;SDS011;22699;51.034;3.730;2023-02-13T03:50:08;94.78;;;42.83;;
36715;SDS011;22699;51.034;3.730;2023-02-13T03:55:21;83.78;;;41.28;;
36715;SDS011;22699;51.034;3.730;2023-02-13T04:01:27;91.97;;;42.97;;
36715;SDS011;22699;51.034;3.730;2023-02-13T04:06:59;90.32;;;42.58;;
36715;SDS011;22699;51.034;3.730;2023-02-13T04:09:34;70.45;;;31.98;;
36715;SDS011;22699;51.034;3.730;2023-02-13T04:14:57;97.00;;;45.40;;
36715;SDS011;22699;51.034;3.730;2023-02-13T04:17:48;70.68;;;34.40;;
36715;SDS011;22699;51.034;3.730;2023-02-13T04:20:20;102.43;;;45.28;;
36715;SDS011;22699;51.034;3.730;2023-02-13T04:22:46;88.50;;;41.20;;
36715;SDS011;22699;51.034;3.730;2023-02-13T04:25:14;98.70;;;44.53;;
36715;SDS011;22699;51.034;3.730;2023-02-13T04:27:42;96.00;;;45.75;;
36715;SDS011;22699;51.034;3.730;2023-02-13T04:30:08;99.68;;;46.83;;
36715;SDS011;22699;51.034;3.730;2023-02-13T04:32:34;103.25;;;48.05;;
36715;SDS011;22699;51.034;3.730;2023-02-13T04:35:00;95.78;;;46.38;;
36715;SDS011;22699;51.034;3.730;2023-02-13T04:37:26;94.95;;;45.25;;
36715;SDS011;22699;51.034;3.730;2023-02-13T04:39:54;99.07;;;47.30;;
36715;SDS011;22699;51.034;3.730;2023-02-13T04:42:21;100.07;;;46.42;;
36715;SDS011;22699;51.034;3.730;2023-02-13T04:44:51;101.00;;;46.08;;
36715;SDS011;22699;51.034;3.730;2023-02-13T04:49:42;102.78;;;45.17;;
36715;SDS011;22699;51.034;3.730;2023-02-13T04:52:08;105.75;;;47.88;;
36715;SDS011;22699;51.034;3.730;2023-02-13T04:54:33;98.55;;;46.13;;
36715;SDS011;22699;51.034;3.730;2023-02-13T04:57:00;104.53;;;46.22;;
36715;SDS011;22699;51.034;3.730;2023-02-13T04:59:30;100.53;;;46.67;;
36715;SDS011;22699;51.034;3.730;2023-02-13T05:01:56;102.90;;;46.33;;
36715;SDS011;22699;51.034;3.730;2023-02-13T05:04:23;105.28;;;47.88;;
36715;SDS011;22699;51.034;3.730;2023-02-13T05:06:49;111.57;;;49.40;;
36715;SDS011;22699;51.034;3.730;2023-02-13T05:09:15;109.45;;;47.35;;
36715;SDS011;22699;51.034;3.730;2023-02-13T05:11:41;102.50;;;46.60;;
36715;SDS011;22699;51.034;3.730;2023-02-13T05:14:07;110.93;;;48.70;;
36715;SDS011;22699;51.034;3.730;2023-02-13T05:16:34;106.50;;;46.10;;
36715;SDS011;22699;51.034;3.730;2023-02-13T05:19:01;116.57;;;49.30;;
36715;SDS011;22699;51.034;3.730;2023-02-13T05:21:28;109.45;;;47.45;;
36715;SDS011;22699;51.034;3.730;2023-02-13T05:24:12;107.90;;;48.17;;
36715;SDS011;22699;51.034;3.730;2023-02-13T05:26:38;110.13;;;48.92;;
36715;SDS011;22699;51.034;3.730;2023-02-13T05:29:04;114.88;;;49.13;;
36715;SDS011;22699;51.034;3.730;2023-02-13T05:31:43;132.75;;;51.40;;
36715;SDS011;22699;51.034;3.730;2023-02-13T05:34:12;109.93;;;46.88;;
36715;SDS011;22699;51.034;3.730;2023-02-13T05:36:37;117.57;;;50.63;;
36715;SDS011;22699;51.034;3.730;2023-02-13T05:39:04;113.18;;;48.95;;
36715;SDS011;22699;51.034;3.730;2023-02-13T05:41:30;114.53;;;49.53;;
36715;SDS011;22699;51.034;3.730;2023-02-13T05:43:56;119.88;;;50.30;;
36715;SDS011;22699;51.034;3.730;2023-02-13T05:46:24;116.72;;;48.28;;
36715;SDS011;22699;51.034;3.730;2023-02-13T05:48:50;106.90;;;47.97;;
36715;SDS011;22699;51.034;3.730;2023-02-13T05:51:17;123.65;;;51.65;;
36715;SDS011;22699;51.034;3.730;2023-02-13T05:53:43;125.82;;;50.42;;
36715;SDS011;22699;51.034;3.730;2023-02-13T05:56:12;119.75;;;49.67;;
36715;SDS011;22699;51.034;3.730;2023-02-13T05:58:38;129.90;;;52.45;;
36715;SDS011;22699;51.034;3.730;2023-02-13T06:01:05;194.48;;;51.40;;
36715;SDS011;22699;51.034;3.730;2023-02-13T06:03:34;169.60;;;49.60;;
36715;SDS011;22699;51.034;3.730;2023-02-13T06:06:03;191.07;;;51.42;;
36715;SDS011;22699;51.034;3.730;2023-02-13T06:08:32;196.93;;;52.53;;
36715;SDS011;22699;51.034;3.730;2023-02-13T06:10:59;207.27;;;53.08;;
36715;SDS011;22699;51.034;3.730;2023-02-13T06:13:26;173.38;;;50.38;;
36715;SDS011;22699;51.034;3.730;2023-02-13T06:15:53;160.65;;;49.25;;
36715;SDS011;22699;51.034;3.730;2023-02-13T06:18:21;166.77;;;51.60;;
36715;SDS011;22699;51.034;3.730;2023-02-13T06:20:51;233.32;;;49.30;;
36715;SDS011;22699;51.034;3.730;2023-02-13T06:23:17;188.68;;;48.00;;
36715;SDS011;22699;51.034;3.730;2023-02-13T06:25:44;184.00;;;48.50;;
36715;SDS011;22699;51.034;3.730;2023-02-13T06:28:11;83.60;;;39.15;;
36715;SDS011;22699;51.034;3.730;2023-02-13T06:30:52;135.85;;;40.38;;
36715;SDS011;22699;51.034;3.730;2023-02-13T06:33:17;115.03;;;40.28;;
36715;SDS011;22699;51.034;3.730;2023-02-13T06:35:44;148.73;;;39.58;;
36715;SDS011;22699;51.034;3.730;2023-02-13T06:38:15;164.27;;;41.45;;
36715;SDS011;22699;51.034;3.730;2023-02-13T06:40:43;126.63;;;40.97;;
36715;SDS011;22699;51.034;3.730;2023-02-13T06:43:13;158.50;;;45.88;;
36715;SDS011;22699;51.034;3.730;2023-02-13T06:45:39;533.65;;;104.85;;
36715;SDS011;22699;51.034;3.730;2023-02-13T06:48:06;139.88;;;44.38;;
36715;SDS011;22699;51.034;3.730;2023-02-13T06:50:38;141.10;;;44.65;;
36715;SDS011;22699;51.034;3.730;2023-02-13T06:53:07;116.13;;;41.03;;
36715;SDS011;22699;51.034;3.730;2023-02-13T06:55:35;64.07;;;35.72;;
36715;SDS011;22699;51.034;3.730;2023-02-13T07:03:03;997.88;;;119.30;;
36715;SDS011;22699;51.034;3.730;2023-02-13T07:05:38;125.75;;;40.47;;
36715;SDS011;22699;51.034;3.730;2023-02-13T07:08:18;113.35;;;38.95;;
36715;SDS011;22699;51.034;3.730;2023-02-13T07:10:47;87.18;;;37.58;;
36715;SDS011;22699;51.034;3.730;2023-02-13T07:13:14;106.38;;;38.00;;
36715;SDS011;22699;51.034;3.730;2023-02-13T07:15:46;101.88;;;39.45;;
36715;SDS011;22699;51.034;3.730;2023-02-13T07:18:13;69.43;;;34.67;;
36715;SDS011;22699;51.034;3.730;2023-02-13T07:20:45;74.13;;;36.35;;
36715;SDS011;22699;51.034;3.730;2023-02-13T07:23:14;85.70;;;37.00;;
36715;SDS011;22699;51.034;3.730;2023-02-13T07:25:41;75.53;;;35.17;;
36715;SDS011;22699;51.034;3.730;2023-02-13T07:28:07;68.90;;;34.13;;
36715;SDS011;22699;51.034;3.730;2023-02-13T07:30:34;63.28;;;32.33;;
36715;SDS011;22699;51.034;3.730;2023-02-13T07:33:09;66.78;;;33.03;;
36715;SDS011;22699;51.034;3.730;2023-02-13T07:35:35;68.38;;;34.15;;
36715;SDS011;22699;51.034;3.730;2023-02-13T07:38:03;65.65;;;33.17;;
36715;SDS011;22699;51.034;3.730;2023-02-13T07:40:35;69.85;;;33.35;;
36715;SDS011;22699;51.034;3.730;2023-02-13T07:45:33;70.03;;;34.78;;
36715;SDS011;22699;51.034;3.730;2023-02-13T07:48:02;70.07;;;34.60;;
36715;SDS011;22699;51.034;3.730;2023-02-13T07:50:29;68.40;;;34.08;;
36715;SDS011;22699;51.034;3.730;2023-02-13T07:52:56;64.30;;;32.03;;
36715;SDS011;22699;51.034;3.730;2023-02-13T07:55:24;55.97;;;30.23;;
36715;SDS011;22699;51.034;3.730;2023-02-13T07:57:54;57.85;;;29.77;;
36715;SDS011;22699;51.034;3.730;2023-02-13T08:00:22;62.95;;;29.40;;
36715;SDS011;22699;51.034;3.730;2023-02-13T08:02:48;59.10;;;26.80;;
36715;SDS011;22699;51.034;3.730;2023-02-13T08:05:14;54.13;;;27.58;;
36715;SDS011;22699;51.034;3.730;2023-02-13T08:07:42;46.05;;;26.65;;
36715;SDS011;22699;51.034;3.730;2023-02-13T08:10:08;41.67;;;26.25;;
36715;SDS011;22699;51.034;3.730;2023-02-13T08:12:56;40.47;;;25.15;;
36715;SDS011;22699;51.034;3.730;2023-02-13T08:15:21;40.03;;;23.67;;
36715;SDS011;22699;51.034;3.730;2023-02-13T08:17:47;41.42;;;21.70;;
36715;SDS011;22699;51.034;3.730;2023-02-13T08:20:13;40.33;;;21.83;;
36715;SDS011;22699;51.034;3.730;2023-02-13T08:22:39;35.47;;;21.70;;
36715;SDS011;22699;51.034;3.730;2023-02-13T08:25:06;43.00;;;26.75;;
36715;SDS011;22699;51.034;3.730;2023-02-13T08:27:33;38.75;;;27.25;;
36715;SDS011;22699;51.034;3.730;2023-02-13T08:30:00;43.08;;;25.67;;
36715;SDS011;22699;51.034;3.730;2023-02-13T08:32:27;30.23;;;21.40;;
36715;SDS011;22699;51.034;3.730;2023-02-13T08:34:54;25.65;;;20.27;;
36715;SDS011;22699;51.034;3.730;2023-02-13T08:37:20;28.60;;;20.65;;
36715;SDS011;22699;51.034;3.730;2023-02-13T08:39:47;27.73;;;22.52;;
36715;SDS011;22699;51.034;3.730;2023-02-13T08:42:14;40.10;;;29.13;;
36715;SDS011;22699;51.034;3.730;2023-02-13T08:44:40;37.33;;;25.95;;
36715;SDS011;22699;51.034;3.730;2023-02-13T08:47:06;34.83;;;24.95;;
36715;SDS011;22699;51.034;3.730;2023-02-13T08:49:33;26.20;;;20.77;;
36715;SDS011;22699;51.034;3.730;2023-02-13T08:51:59;26.48;;;19.05;;
36715;SDS011;22699;51.034;3.730;2023-02-13T08:54:25;26.55;;;19.35;;
36715;SDS011;22699;51.034;3.730;2023-02-13T08:56:52;22.73;;;17.60;;
36715;SDS011;22699;51.034;3.730;2023-02-13T08:59:18;26.75;;;20.45;;
36715;SDS011;22699;51.034;3.730;2023-02-13T09:01:45;34.13;;;22.80;;
36715;SDS011;22699;51.034;3.730;2023-02-13T09:04:18;45.53;;;32.97;;
36715;SDS011;22699;51.034;3.730;2023-02-13T09:06:44;51.72;;;30.35;;
36715;SDS011;22699;51.034;3.730;2023-02-13T09:09:10;40.22;;;26.15;;
36715;SDS011;22699;51.034;3.730;2023-02-13T09:11:35;31.17;;;23.30;;
36715;SDS011;22699;51.034;3.730;2023-02-13T09:14:07;27.83;;;20.63;;
36715;SDS011;22699;51.034;3.730;2023-02-13T09:16:36;26.00;;;20.17;;
36715;SDS011;22699;51.034;3.730;2023-02-13T09:19:02;31.85;;;21.77;;
36715;SDS011;22699;51.034;3.730;2023-02-13T09:21:29;30.05;;;21.70;;
36715;SDS011;22699;51.034;3.730;2023-02-13T09:23:55;32.17;;;23.02;;
36715;SDS011;22699;51.034;3.730;2023-02-13T09:26:21;30.02;;;21.92;;
36715;SDS011;22699;51.034;3.730;2023-02-13T09:28:46;34.45;;;23.83;;
36715;SDS011;22699;51.034;3.730;2023-02-13T09:31:13;28.45;;;20.80;;
36715;SDS011;22699;51.034;3.730;2023-02-13T09:33:40;30.08;;;23.40;;
36715;SDS011;22699;51.034;3.730;2023-02-13T09:36:10;33.60;;;23.50;;
36715;SDS011;22699;51.034;3.730;2023-02-13T09:38:46;28.85;;;22.73;;
36715;SDS011;22699;51.034;3.730;2023-02-13T09:41:20;35.55;;;23.30;;
36715;SDS011;22699;51.034;3.730;2023-02-13T09:44:38;30.17;;;19.63;;
36715;SDS011;22699;51.034;3.730;2023-02-13T09:52:44;29.15;;;20.38;;
36715;SDS011;22699;51.034;3.730;2023-02-13T09:55:16;27.38;;;19.63;;
36715;SDS011;22699;51.034;3.730;2023-02-13T09:57:46;23.55;;;18.90;;
36715;SDS011;22699;51.034;3.730;2023-02-13T10:00:25;30.48;;;20.55;;
36715;SDS011;22699;51.034;3.730;2023-02-13T10:05:33;26.77;;;20.05;;
36715;SDS011;22699;51.034;3.730;2023-02-13T10:17:05;28.75;;;19.38;;
36715;SDS011;22699;51.034;3.730;2023-02-13T10:19:45;35.90;;;20.65;;
36715;SDS011;22699;51.034;3.730;2023-02-13T10:22:25;33.10;;;21.75;;
36715;SDS011;22699;51.034;3.730;2023-02-13T10:25:03;27.98;;;19.25;;
36715;SDS011;22699;51.034;3.730;2023-02-13T10:27:33;29.83;;;19.33;;
36715;SDS011;22699;51.034;3.730;2023-02-13T10:38:27;28.52;;;19.23;;
36715;SDS011;22699;51.034;3.730;2023-02-13T11:04:05;44.08;;;20.38;;
36715;SDS011;22699;51.034;3.730;2023-02-13T11:06:37;34.88;;;21.35;;
36715;SDS011;22699;51.034;3.730;2023-02-13T11:09:23;31.70;;;18.73;;
36715;SDS011;22699;51.034;3.730;2023-02-13T11:11:51;29.23;;;19.02;;
36715;SDS011;22699;51.034;3.730;2023-02-13T11:14:20;28.63;;;18.67;;
36715;SDS011;22699;51.034;3.730;2023-02-13T11:19:29;28.17;;;18.30;;
36715;SDS011;22699;51.034;3.730;2023-02-13T11:22:00;38.42;;;18.20;;
36715;SDS011;22699;51.034;3.730;2023-02-13T11:24:29;29.23;;;17.88;;
36715;SDS011;22699;51.034;3.730;2023-02-13T11:26:58;35.08;;;18.05;;
36715;SDS011;22699;51.034;3.730;2023-02-13T11:29:34;29.60;;;17.73;;
36715;SDS011;22699;51.034;3.730;2023-02-13T11:34:39;32.38;;;20.05;;
36715;SDS011;22699;51.034;3.730;2023-02-13T11:39:37;28.17;;;17.85;;
36715;SDS011;22699;51.034;3.730;2023-02-13T11:42:36;37.35;;;19.50;;
36715;SDS011;22699;51.034;3.730;2023-02-13T11:44:59;29.15;;;18.85;;
36715;SDS011;22699;51.034;3.730;2023-02-13T11:47:35;23.35;;;16.73;;
36715;SDS011;22699;51.034;3.730;2023-02-13T11:50:18;25.77;;;17.33;;
36715;SDS011;22699;51.034;3.730;2023-02-13T11:52:51;26.33;;;17.70;;
36715;SDS011;22699;51.034;3.730;2023-02-13T11:55:28;32.95;;;18.45;;
36715;SDS011;22699;51.034;3.730;2023-02-13T11:58:03;30.35;;;18.40;;
36715;SDS011;22699;51.034;3.730;2023-02-13T12:00:36;31.60;;;20.98;;
36715;SDS011;22699;51.034;3.730;2023-02-13T12:05:58;36.42;;;19.65;;
36715;SDS011;22699;51.034;3.730;2023-02-13T12:08:35;28.08;;;18.60;;
36715;SDS011;22699;51.034;3.730;2023-02-13T12:11:04;34.72;;;18.65;;
36715;SDS011;22699;51.034;3.730;2023-02-13T12:13:47;29.20;;;18.35;;
36715;SDS011;22699;51.034;3.730;2023-02-13T12:18:55;30.65;;;18.00;;
36715;SDS011;22699;51.034;3.730;2023-02-13T12:24:20;32.93;;;18.00;;
36715;SDS011;22699;51.034;3.730;2023-02-13T12:32:20;30.38;;;18.98;;
36715;SDS011;22699;51.034;3.730;2023-02-13T12:34:53;28.48;;;19.20;;
36715;SDS011;22699;51.034;3.730;2023-02-13T12:37:54;28.90;;;18.25;;
36715;SDS011;22699;51.034;3.730;2023-02-13T12:55:00;63.47;;;19.13;;
36715;SDS011;22699;51.034;3.730;2023-02-13T13:27:51;25.73;;;19.08;;
36715;SDS011;22699;51.034;3.730;2023-02-13T13:30:22;25.40;;;17.33;;
36715;SDS011;22699;51.034;3.730;2023-02-13T13:32:58;34.72;;;17.33;;
36715;SDS011;22699;51.034;3.730;2023-02-13T13:35:28;26.02;;;17.60;;
36715;SDS011;22699;51.034;3.730;2023-02-13T13:38:00;25.58;;;17.27;;
36715;SDS011;22699;51.034;3.730;2023-02-13T13:43:28;27.50;;;16.85;;
36715;SDS011;22699;51.034;3.730;2023-02-13T13:51:07;46.75;;;18.60;;
36715;SDS011;22699;51.034;3.730;2023-02-13T13:54:24;23.40;;;17.20;;
36715;SDS011;22699;51.034;3.730;2023-02-13T13:56:24;21.52;;;16.45;;
36715;SDS011;22699;51.034;3.730;2023-02-13T13:58:50;22.95;;;16.70;;
36715;SDS011;22699;51.034;3.730;2023-02-13T14:03:44;22.48;;;15.63;;
36715;SDS011;22699;51.034;3.730;2023-02-13T14:06:12;21.60;;;16.08;;
36715;SDS011;22699;51.034;3.730;2023-02-13T14:15:59;27.45;;;18.30;;
36715;SDS011;22699;51.034;3.730;2023-02-13T14:18:25;26.33;;;17.80;;
36715;SDS011;22699;51.034;3.730;2023-02-13T14:20:53;23.92;;;17.60;;
36715;SDS011;22699;51.034;3.730;2023-02-13T14:25:47;36.38;;;17.40;;
36715;SDS011;22699;51.034;3.730;2023-02-13T14:28:17;33.28;;;17.45;;
36715;SDS011;22699;51.034;3.730;2023-02-13T14:30:49;25.88;;;17.83;;
36715;SDS011;22699;51.034;3.730;2023-02-13T14:33:21;27.38;;;17.13;;
36715;SDS011;22699;51.034;3.730;2023-02-13T14:35:58;26.60;;;17.55;;
36715;SDS011;22699;51.034;3.730;2023-02-13T14:38:32;23.95;;;17.83;;
36715;SDS011;22699;51.034;3.730;2023-02-13T14:40:59;23.95;;;17.67;;
36715;SDS011;22699;51.034;3.730;2023-02-13T14:43:34;24.80;;;17.08;;
36715;SDS011;22699;51.034;3.730;2023-02-13T14:48:40;25.50;;;17.08;;
36715;SDS011;22699;51.034;3.730;2023-02-13T14:51:19;23.30;;;17.67;;
36715;SDS011;22699;51.034;3.730;2023-02-13T14:53:58;26.30;;;17.88;;
36715;SDS011;22699;51.034;3.730;2023-02-13T14:56:28;31.65;;;18.88;;
36715;SDS011;22699;51.034;3.730;2023-02-13T14:59:14;26.38;;;17.73;;
36715;SDS011;22699;51.034;3.730;2023-02-13T15:01:45;24.88;;;15.85;;
36715;SDS011;22699;51.034;3.730;2023-02-13T15:06:49;23.88;;;17.35;;
36715;SDS011;22699;51.034;3.730;2023-02-13T15:09:21;24.08;;;16.63;;
36715;SDS011;22699;51.034;3.730;2023-02-13T15:11:56;24.25;;;16.95;;
36715;SDS011;22699;51.034;3.730;2023-02-13T15:14:35;26.55;;;18.65;;
36715;SDS011;22699;51.034;3.730;2023-02-13T15:19:44;25.83;;;18.35;;
36715;SDS011;22699;51.034;3.730;2023-02-13T15:24:57;24.08;;;16.02;;
36715;SDS011;22699;51.034;3.730;2023-02-13T15:27:25;28.45;;;16.77;;
36715;SDS011;22699;51.034;3.730;2023-02-13T15:30:21;25.75;;;16.70;;
36715;SDS011;22699;51.034;3.730;2023-02-13T15:33:01;24.67;;;15.80;;
36715;SDS011;22699;51.034;3.730;2023-02-13T15:35:32;27.85;;;17.85;;
36715;SDS011;22699;51.034;3.730;2023-02-13T15:41:25;25.25;;;16.30;;
36715;SDS011;22699;51.034;3.730;2023-02-13T15:43:55;28.27;;;18.20;;
36715;SDS011;22699;51.034;3.730;2023-02-13T15:46:32;25.65;;;17.35;;
36715;SDS011;22699;51.034;3.730;2023-02-13T15:49:03;28.42;;;17.58;;
36715;SDS011;22699;51.034;3.730;2023-02-13T15:51:36;28.88;;;17.83;;
36715;SDS011;22699;51.034;3.730;2023-02-13T15:54:03;23.65;;;16.40;;
36715;SDS011;22699;51.034;3.730;2023-02-13T15:56:31;24.65;;;16.85;;
36715;SDS011;22699;51.034;3.730;2023-02-13T15:58:58;25.58;;;17.50;;
36715;SDS011;22699;51.034;3.730;2023-02-13T16:01:24;34.78;;;16.63;;
36715;SDS011;22699;51.034;3.730;2023-02-13T16:04:04;25.13;;;17.23;;
36715;SDS011;22699;51.034;3.730;2023-02-13T16:06:32;29.10;;;16.85;;
36715;SDS011;22699;51.034;3.730;2023-02-13T16:08:59;28.75;;;17.27;;
36715;SDS011;22699;51.034;3.730;2023-02-13T16:16:41;23.17;;;16.85;;
36715;SDS011;22699;51.034;3.730;2023-02-13T16:19:24;23.90;;;17.23;;
36715;SDS011;22699;51.034;3.730;2023-02-13T16:22:33;22.25;;;17.08;;
36715;SDS011;22699;51.034;3.730;2023-02-13T16:25:02;34.08;;;19.00;;
36715;SDS011;22699;51.034;3.730;2023-02-13T16:28:34;28.90;;;18.48;;
36715;SDS011;22699;51.034;3.730;2023-02-13T16:30:45;29.08;;;17.92;;
36715;SDS011;22699;51.034;3.730;2023-02-13T16:33:28;26.42;;;18.45;;
36715;SDS011;22699;51.034;3.730;2023-02-13T16:35:55;24.75;;;17.10;;
36715;SDS011;22699;51.034;3.730;2023-02-13T16:38:25;27.17;;;18.05;;
36715;SDS011;22699;51.034;3.730;2023-02-13T16:40:51;25.85;;;18.25;;
36715;SDS011;22699;51.034;3.730;2023-02-13T16:43:39;33.08;;;18.25;;
36715;SDS011;22699;51.034;3.730;2023-02-13T16:48:44;29.40;;;18.70;;
36715;SDS011;22699;51.034;3.730;2023-02-13T16:51:23;40.88;;;19.13;;
36715;SDS011;22699;51.034;3.730;2023-02-13T16:54:00;37.75;;;19.85;;
36715;SDS011;22699;51.034;3.730;2023-02-13T16:56:43;32.90;;;17.20;;
36715;SDS011;22699;51.034;3.730;2023-02-13T17:05:10;36.22;;;19.00;;
36715;SDS011;22699;51.034;3.730;2023-02-13T17:07:45;29.58;;;17.55;;
36715;SDS011;22699;51.034;3.730;2023-02-13T17:12:59;27.30;;;18.35;;
36715;SDS011;22699;51.034;3.730;2023-02-13T17:15:28;25.33;;;18.15;;
36715;SDS011;22699;51.034;3.730;2023-02-13T17:17:55;25.75;;;18.33;;
36715;SDS011;22699;51.034;3.730;2023-02-13T17:20:31;24.25;;;16.67;;
36715;SDS011;22699;51.034;3.730;2023-02-13T17:23:00;25.42;;;18.30;;
36715;SDS011;22699;51.034;3.730;2023-02-13T17:28:05;26.10;;;16.98;;
36715;SDS011;22699;51.034;3.730;2023-02-13T17:30:39;26.52;;;18.90;;
36715;SDS011;22699;51.034;3.730;2023-02-13T17:33:08;25.08;;;17.70;;
36715;SDS011;22699;51.034;3.730;2023-02-13T17:35:37;31.92;;;18.02;;
36715;SDS011;22699;51.034;3.730;2023-02-13T17:38:03;25.63;;;17.65;;
36715;SDS011;22699;51.034;3.730;2023-02-13T17:40:30;26.25;;;17.80;;
36715;SDS011;22699;51.034;3.730;2023-02-13T17:42:56;27.58;;;18.38;;
36715;SDS011;22699;51.034;3.730;2023-02-13T17:45:24;25.58;;;18.50;;
36715;SDS011;22699;51.034;3.730;2023-02-13T17:47:52;28.30;;;17.70;;
36715;SDS011;22699;51.034;3.730;2023-02-13T17:50:24;24.95;;;18.63;;
36715;SDS011;22699;51.034;3.730;2023-02-13T17:52:52;29.83;;;19.15;;
36715;SDS011;22699;51.034;3.730;2023-02-13T17:55:21;29.95;;;19.73;;
36715;SDS011;22699;51.034;3.730;2023-02-13T17:57:54;30.98;;;21.02;;
36715;SDS011;22699;51.034;3.730;2023-02-13T18:00:22;29.33;;;18.75;;
36715;SDS011;22699;51.034;3.730;2023-02-13T18:02:51;31.40;;;20.88;;
36715;SDS011;22699;51.034;3.730;2023-02-13T18:05:16;27.63;;;20.65;;
36715;SDS011;22699;51.034;3.730;2023-02-13T18:07:43;35.65;;;21.92;;
36715;SDS011;22699;51.034;3.730;2023-02-13T18:10:10;32.75;;;23.17;;
36715;SDS011;22699;51.034;3.730;2023-02-13T18:12:38;34.20;;;22.15;;
36715;SDS011;22699;51.034;3.730;2023-02-13T18:15:05;35.22;;;23.80;;
36715;SDS011;22699;51.034;3.730;2023-02-13T18:17:31;34.15;;;22.35;;
36715;SDS011;22699;51.034;3.730;2023-02-13T18:19:57;32.22;;;20.42;;
36715;SDS011;22699;51.034;3.730;2023-02-13T18:22:22;27.85;;;20.15;;
36715;SDS011;22699;51.034;3.730;2023-02-13T18:24:48;24.40;;;18.02;;
36715;SDS011;22699;51.034;3.730;2023-02-13T18:27:17;34.42;;;21.75;;
36715;SDS011;22699;51.034;3.730;2023-02-13T18:29:53;34.83;;;23.58;;
36715;SDS011;22699;51.034;3.730;2023-02-13T18:32:20;34.55;;;22.52;;
36715;SDS011;22699;51.034;3.730;2023-02-13T18:34:46;32.17;;;22.27;;
36715;SDS011;22699;51.034;3.730;2023-02-13T18:37:14;36.33;;;25.48;;
36715;SDS011;22699;51.034;3.730;2023-02-13T18:39:40;33.60;;;24.15;;
36715;SDS011;22699;51.034;3.730;2023-02-13T18:42:09;35.63;;;22.60;;
36715;SDS011;22699;51.034;3.730;2023-02-13T18:47:05;37.45;;;24.60;;